createdAt,value
2018-03-23T00:12:52.694Z,21.5
2018-03-23T00:27:52.678Z,20.9
2018-03-23T00:47:52.720Z,17.4
2018-03-23T01:17:52.911Z,17.4
2018-03-23T01:52:52.931Z,18.4
2018-03-23T02:57:54.729Z,21.6
2018-03-23T03:12:54.926Z,18.2
2018-03-23T03:32:54.756Z,18.2
2018-03-23T04:02:54.826Z,15.4
2018-03-23T04:37:54.854Z,17.9
2018-03-23T04:52:54.803Z,20.5
2018-03-23T05:42:54.890Z,26.8
2018-03-23T06:12:55.106Z,25.7
2018-03-23T06:32:55.150Z,26
2018-03-23T06:47:55.200Z,29.1
2018-03-23T07:02:56.160Z,29.2
2018-03-23T07:22:56.506Z,31
2018-03-23T07:52:56.420Z,25
2018-03-23T08:27:56.633Z,27.8
2018-03-23T08:42:56.633Z,20.7
2018-03-23T08:57:56.464Z,21.1
2018-03-23T09:17:56.668Z,26.5
2018-03-23T10:02:56.596Z,29
2018-03-23T10:22:56.990Z,24.2
2018-03-23T10:52:57.222Z,24.3
2018-03-23T11:12:57.128Z,20.4
2018-03-23T11:27:57.171Z,23.1
2018-03-23T11:58:00.479Z,19.3
2018-03-23T12:18:00.370Z,17.9
2018-03-23T12:48:00.368Z,17.6
2018-03-23T13:08:00.586Z,17.9
2018-03-23T13:23:00.603Z,20
2018-03-23T13:38:00.518Z,27.3
2018-03-23T13:53:00.628Z,24.2
2018-03-23T14:13:00.512Z,22.6
2018-03-23T14:28:00.398Z,24.2
2018-03-23T14:43:03.216Z,20.9
2018-03-23T15:03:00.557Z,23.1
2018-03-23T15:18:00.574Z,31.9
2018-03-23T15:33:00.462Z,40.5
2018-03-23T16:08:00.596Z,35.1
2018-03-23T16:23:00.588Z,30.5
2018-03-23T16:38:04.023Z,30
2018-03-23T16:58:04.109Z,34.7
2018-03-23T17:13:04.284Z,33.8
2018-03-23T17:28:04.108Z,34.2
2018-03-23T17:43:04.302Z,28.3
2018-03-23T18:03:04.299Z,35
2018-03-23T18:18:04.129Z,33.7
2018-03-23T18:53:04.382Z,37.2
2018-03-23T19:08:04.170Z,40.1
2018-03-23T19:23:04.373Z,37.5
2018-03-23T19:38:07.422Z,39.7
2018-03-23T20:28:04.493Z,33.4
2018-03-23T21:03:04.434Z,40.7
2018-03-23T21:33:07.709Z,38.6
2018-03-23T21:53:13.064Z,33.9
2018-03-23T22:08:13.250Z,30.5
2018-03-23T22:23:13.266Z,29.4
2018-03-23T22:43:13.057Z,39.9
2018-03-23T22:58:13.051Z,37.4
2018-03-23T23:13:13.096Z,31.6
2018-03-23T23:28:13.287Z,35.6
2018-03-23T23:48:13.825Z,33.3
